Time;durP1;ratioP1;P1;durP2;ratioP2;P2;SDS_P1;SDS_P2;PMS_P1;PMS_P2;Temp;Humidity;BMP_temperature;BMP_pressure;BME280_temperature;BME280_humidity;BME280_pressure;Samples;Min_cycle;Max_cycle;Signal;HPM_P1;HPM_P2
2023/01/11 00:01:37;;;;;;;6.35;3.33;;;;;;;8.83;100.00;100626.66;5072849;28;20040;-71
2023/01/11 00:04:03;;;;;;;11.90;3.55;;;;;;;8.82;100.00;100614.31;5061376;28;20034;-71
2023/01/11 00:06:28;;;;;;;6.68;3.75;;;;;;;8.86;100.00;100615.88;5054860;28;20031;-71
2023/01/11 00:08:55;;;;;;;4.65;3.53;;;;;;;8.94;100.00;100612.75;5079467;28;20036;-72
2023/01/11 00:11:20;;;;;;;7.10;3.60;;;;;;;8.90;100.00;100616.53;5078970;28;20048;-72
2023/01/11 00:13:46;;;;;;;5.30;3.88;;;;;;;8.97;100.00;100613.41;5074263;28;20058;-71
2023/01/11 00:16:12;;;;;;;7.20;4.05;;;;;;;8.95;100.00;100607.34;5079340;28;20546;-71
2023/01/11 00:18:37;;;;;;;6.68;4.10;;;;;;;9.01;100.00;100606.97;5075408;28;20040;-71
2023/01/11 00:21:04;;;;;;;6.75;4.00;;;;;;;9.06;100.00;100612.00;5059116;28;20105;-72
2023/01/11 00:23:34;;;;;;;9.88;4.00;;;;;;;9.08;100.00;100607.44;5054886;28;20054;-72
2023/01/11 00:26:04;;;;;;;7.47;3.70;;;;;;;9.22;100.00;100601.28;5072844;28;20096;-71
2023/01/11 00:28:29;;;;;;;10.07;3.53;;;;;;;9.26;100.00;100597.47;5078859;28;20024;-71
2023/01/11 00:30:55;;;;;;;7.03;3.38;;;;;;;9.29;100.00;100587.50;5077484;28;20051;-72
2023/01/11 00:33:20;;;;;;;6.70;3.72;;;;;;;9.29;100.00;100594.66;5078820;28;20040;-73
2023/01/11 00:35:46;;;;;;;6.05;3.58;;;;;;;9.29;100.00;100587.50;5060377;28;20048;-72
2023/01/11 00:38:42;;;;;;;8.65;4.07;;;;;;;9.37;100.00;100580.84;5060497;28;20036;-72
2023/01/11 00:47:55;;;;;;;10.85;4.93;;;;;;;9.43;100.00;100575.13;5074797;28;20086;-72
2023/01/11 00:49:15;;;;;;;15.10;4.07;;;;;;;9.48;100.00;100573.03;5021618;28;20585;-72
2023/01/11 00:51:40;;;;;;;5.93;3.88;;;;;;;9.44;100.00;100567.06;5024273;28;20049;-72
2023/01/11 00:54:06;;;;;;;9.70;3.92;;;;;;;9.46;100.00;100570.47;5025179;28;20067;-71
2023/01/11 00:56:31;;;;;;;7.50;3.50;;;;;;;9.62;100.00;100559.72;5015840;28;20060;-72
2023/01/11 00:58:57;;;;;;;7.15;3.20;;;;;;;9.54;100.00;100562.88;5026177;28;20045;-72
2023/01/11 01:01:22;;;;;;;4.28;3.13;;;;;;;9.57;100.00;100553.81;5000640;28;20060;-72
2023/01/11 01:03:47;;;;;;;11.52;4.53;;;;;;;9.69;100.00;100549.50;5016817;28;20054;-72
2023/01/11 01:06:13;;;;;;;6.63;3.15;;;;;;;9.65;100.00;100556.88;5026846;28;20156;-72
2023/01/11 01:08:38;;;;;;;5.25;3.13;;;;;;;9.69;100.00;100545.06;5031579;28;20052;-72
2023/01/11 01:11:04;;;;;;;5.60;4.25;;;;;;;9.68;100.00;100546.00;5020915;28;20104;-72
2023/01/11 01:16:13;;;;;;;7.75;4.10;;;;;;;9.68;100.00;100553.97;5007454;28;20056;-72
2023/01/11 01:18:39;;;;;;;5.43;2.72;;;;;;;9.60;100.00;100553.63;5022087;28;20101;-71
2023/01/11 01:21:04;;;;;;;7.35;2.78;;;;;;;9.57;100.00;100553.81;4997986;28;20037;-71
2023/01/11 01:23:29;;;;;;;5.03;2.90;;;;;;;9.57;100.00;100549.34;5042953;28;20071;-72
2023/01/11 01:25:55;;;;;;;6.22;2.90;;;;;;;9.60;100.00;100549.16;5076676;28;20043;-72
2023/01/11 01:28:21;;;;;;;3.63;3.05;;;;;;;9.59;100.00;100550.13;5077231;28;20043;-73
2023/01/11 01:30:50;;;;;;;5.25;2.95;;;;;;;9.55;100.00;100542.44;5070759;28;20037;-72
2023/01/11 01:33:16;;;;;;;3.40;2.80;;;;;;;9.64;100.00;100547.16;5058541;28;20055;-72
2023/01/11 01:35:41;;;;;;;5.00;3.28;;;;;;;9.67;100.00;100560.25;5050234;28;20036;-72
2023/01/11 01:38:06;;;;;;;7.57;3.55;;;;;;;9.62;100.00;100561.53;5055903;28;20028;-72
2023/01/11 01:40:32;;;;;;;5.18;3.03;;;;;;;9.64;100.00;100557.81;5078026;28;20118;-72
2023/01/11 01:42:57;;;;;;;10.82;3.45;;;;;;;9.67;100.00;100560.25;5042141;28;20039;-72
2023/01/11 01:45:27;;;;;;;3.33;2.88;;;;;;;9.63;100.00;100566.72;5043632;28;20043;-72
2023/01/11 01:47:59;;;;;;;3.72;3.25;;;;;;;9.65;100.00;100556.88;5054278;28;20046;-72
2023/01/11 01:50:28;;;;;;;5.97;3.42;;;;;;;9.70;100.00;100572.53;5078632;28;20036;-72
2023/01/11 01:52:57;;;;;;;12.60;4.32;;;;;;;9.73;100.00;100575.84;5074357;28;20032;-72
2023/01/11 01:55:31;;;;;;;4.38;3.60;;;;;;;9.71;100.00;100563.59;5052488;28;20045;-72
2023/01/11 01:58:00;;;;;;;7.50;3.70;;;;;;;9.75;100.00;100567.78;5055494;28;20135;-72
2023/01/11 02:00:26;;;;;;;7.85;4.05;;;;;;;9.76;100.00;100561.50;5055067;28;20067;-72
2023/01/11 02:02:52;;;;;;;7.25;3.33;;;;;;;9.74;100.00;100563.38;5055441;28;20400;-73
2023/01/11 02:05:18;;;;;;;6.15;3.40;;;;;;;9.74;100.00;100553.63;5059948;28;20560;-72
2023/01/11 02:07:45;;;;;;;4.80;3.60;;;;;;;9.79;100.00;100543.53;5043353;28;20488;-72
2023/01/11 02:10:16;;;;;;;4.70;3.30;;;;;;;9.79;100.00;100562.16;5077976;28;20401;-72
2023/01/11 02:12:45;;;;;;;4.30;3.13;;;;;;;9.82;100.00;100561.94;5043198;28;20051;-72
2023/01/11 02:15:12;;;;;;;4.50;3.45;;;;;;;9.80;100.00;100544.38;5075711;28;20044;-72
2023/01/11 02:17:37;;;;;;;3.90;3.22;;;;;;;9.82;100.00;100556.63;5079222;28;20048;-73
2023/01/11 02:20:24;;;;;;;5.72;3.10;;;;;;;9.89;100.00;100551.75;5079668;28;20039;-72
2023/01/11 02:23:19;;;;;;;8.02;3.13;;;;;;;9.84;100.00;100546.75;5073638;28;20040;-72
2023/01/11 02:26:27;;;;;;;6.53;3.10;;;;;;;9.90;100.00;100541.97;5063516;28;20043;-71
2023/01/11 02:28:57;;;;;;;5.22;2.92;;;;;;;9.85;100.00;100548.44;5073781;28;20032;-72
2023/01/11 02:31:47;;;;;;;3.60;2.47;;;;;;;9.89;100.00;100540.22;5064137;28;20297;-72
2023/01/11 02:34:28;;;;;;;5.32;3.13;;;;;;;9.94;100.00;100536.34;5078148;28;20109;-71
2023/01/11 02:37:01;;;;;;;3.38;2.78;;;;;;;10.00;100.00;100545.72;5062827;28;20039;-72
2023/01/11 02:39:48;;;;;;;4.47;2.78;;;;;;;9.96;100.00;100537.06;5082045;28;20035;-71
2023/01/11 02:45:26;;;;;;;3.35;2.50;;;;;;;10.01;100.00;100547.44;5077776;28;20055;-72
2023/01/11 02:48:01;;;;;;;2.97;2.65;;;;;;;9.96;100.00;100534.41;5061212;28;20113;-72
2023/01/11 02:50:33;;;;;;;5.93;2.40;;;;;;;9.99;100.00;100539.56;5048640;28;20037;-71
2023/01/11 02:53:08;;;;;;;4.35;2.67;;;;;;;9.98;100.00;100539.63;5061005;28;20485;-72
2023/01/11 02:55:41;;;;;;;2.60;2.10;;;;;;;10.02;100.00;100543.81;5056162;28;20086;-71
2023/01/11 02:58:09;;;;;;;4.00;2.78;;;;;;;10.06;100.00;100548.84;5056822;28;20478;-72
2023/01/11 03:00:39;;;;;;;4.22;2.20;;;;;;;9.98;100.00;100542.28;5062920;28;20047;-73
2023/01/11 03:03:20;;;;;;;2.97;1.80;;;;;;;10.07;100.00;100539.88;5077174;28;20059;-72
2023/01/11 03:05:55;;;;;;;5.30;2.20;;;;;;;10.07;100.00;100542.53;5069655;28;20036;-72
2023/01/11 03:08:32;;;;;;;4.22;2.10;;;;;;;10.12;100.00;100544.91;5073382;28;20725;-72
2023/01/11 03:10:57;;;;;;;4.15;2.30;;;;;;;10.11;100.00;100541.41;5080443;28;20503;-71
2023/01/11 03:13:48;;;;;;;2.90;2.10;;;;;;;10.07;100.00;100536.38;5077516;28;20044;-72
2023/01/11 03:16:16;;;;;;;5.60;2.60;;;;;;;10.13;100.00;100536.81;5077488;28;20404;-72
2023/01/11 03:18:57;;;;;;;2.72;2.22;;;;;;;10.16;100.00;100540.25;5079841;28;20028;-72
2023/01/11 03:21:26;;;;;;;7.38;2.47;;;;;;;10.09;100.00;100537.09;5080643;28;20043;-72
2023/01/11 03:24:19;;;;;;;2.90;2.05;;;;;;;10.13;100.00;100538.63;5060779;28;20111;-71
2023/01/11 03:26:56;;;;;;;;;;;;;;;10.18;100.00;100532.97;5058967;28;20040;-72
2023/01/11 03:29:32;;;;;;;5.78;2.45;;;;;;;10.10;100.00;100537.03;5058198;28;19938;-72
2023/01/11 03:32:11;;;;;;;5.47;2.78;;;;;;;10.17;100.00;100534.81;5081761;28;20036;-72
2023/01/11 03:34:45;;;;;;;5.13;3.08;;;;;;;10.20;100.00;100539.09;5060643;28;20705;-71
2023/01/11 03:37:36;;;;;;;3.53;2.75;;;;;;;10.18;100.00;100531.16;5060102;28;20074;-71
2023/01/11 03:40:31;;;;;;;4.18;3.20;;;;;;;10.24;100.00;100528.16;5069827;28;20156;-71
2023/01/11 03:43:10;;;;;;;4.30;3.08;;;;;;;10.18;100.00;100533.84;5071691;28;20776;-72
2023/01/11 03:46:08;;;;;;;4.90;3.13;;;;;;;10.23;100.00;100530.88;5072092;28;20228;-71
2023/01/11 03:48:54;;;;;;;6.10;3.83;;;;;;;10.19;100.00;100540.91;5043854;28;20131;-72
2023/01/11 03:51:26;;;;;;;4.38;3.58;;;;;;;10.26;100.00;100536.88;5059530;28;20596;-72
2023/01/11 03:53:53;;;;;;;;;;;;;;;10.26;100.00;100546.69;5079884;28;20093;-72
2023/01/11 03:56:24;;;;;;;5.95;3.28;;;;;;;10.28;100.00;100548.28;5080442;28;20233;-71
2023/01/11 03:58:49;;;;;;;6.90;4.53;;;;;;;10.31;100.00;100547.25;5079420;28;20063;-72
2023/01/11 04:01:15;;;;;;;8.50;4.80;;;;;;;10.21;100.00;100538.13;5060642;28;20483;-72
2023/01/11 04:03:40;;;;;;;8.13;5.63;;;;;;;10.31;100.00;100547.25;5057971;28;20083;-72
2023/01/11 04:06:09;;;;;;;7.28;5.63;;;;;;;10.30;100.00;100541.06;5047094;28;20031;-73
2023/01/11 04:08:34;;;;;;;9.25;5.90;;;;;;;10.35;100.00;100538.94;5076647;28;20047;-72
2023/01/11 04:11:03;;;;;;;12.18;6.90;;;;;;;10.31;100.00;100541.91;5058845;28;20481;-72
2023/01/11 04:13:29;;;;;;;12.98;6.55;;;;;;;10.38;100.00;100537.88;5075941;28;20095;-73
2023/01/11 04:15:54;;;;;;;10.55;5.45;;;;;;;10.36;100.00;100543.31;5080212;28;20985;-72
2023/01/11 04:18:20;;;;;;;9.73;6.50;;;;;;;10.39;100.00;100555.56;5079284;28;20050;-71
2023/01/11 04:20:46;;;;;;;12.93;6.95;;;;;;;10.46;100.00;100556.88;5079518;28;20023;-72
2023/01/11 04:23:11;;;;;;;15.70;7.53;;;;;;;10.42;100.00;100560.69;5061377;28;20501;-72
2023/01/11 04:25:37;;;;;;;11.70;6.65;;;;;;;10.39;100.00;100560.88;5061709;28;20051;-72
2023/01/11 04:28:03;;;;;;;12.00;8.10;;;;;;;10.46;100.00;100554.22;5075403;28;20036;-72
2023/01/11 04:30:28;;;;;;;12.07;6.65;;;;;;;10.47;100.00;100544.41;5057503;28;20599;-72
2023/01/11 04:32:56;;;;;;;7.03;4.88;;;;;;;10.53;100.00;100560.81;5057983;28;20798;-72
2023/01/11 04:35:22;;;;;;;10.68;4.88;;;;;;;10.43;100.00;100558.88;5080557;28;20876;-72
2023/01/11 04:37:47;;;;;;;10.13;6.07;;;;;;;10.43;100.00;100549.06;5080322;28;20081;-72
2023/01/11 04:40:13;;;;;;;7.78;4.80;;;;;;;10.44;100.00;100553.47;5057472;28;20074;-72
2023/01/11 04:42:38;;;;;;;4.50;3.08;;;;;;;10.52;100.00;100553.78;5079771;28;20035;-73
2023/01/11 04:45:04;;;;;;;5.35;2.95;;;;;;;10.46;100.00;100558.69;5075436;28;20024;-72
2023/01/11 04:47:31;;;;;;;5.57;3.72;;;;;;;10.55;100.00;100568.72;5060117;28;20789;-72
2023/01/11 04:49:56;;;;;;;6.78;3.92;;;;;;;10.62;100.00;100575.34;5079917;28;20445;-72
2023/01/11 04:52:22;;;;;;;6.93;4.50;;;;;;;10.66;100.00;100562.66;5076779;28;20047;-73
2023/01/11 04:54:47;;;;;;;9.70;4.32;;;;;;;10.55;100.00;100568.72;5060636;28;20047;-72
2023/01/11 04:57:14;;;;;;;8.02;4.70;;;;;;;10.65;100.00;100576.97;5057613;28;20256;-71
2023/01/11 04:59:40;;;;;;;13.65;5.78;;;;;;;10.63;100.00;100567.22;5055973;28;20208;-72
2023/01/11 05:02:06;;;;;;;13.95;5.82;;;;;;;10.67;100.00;100567.03;5073048;28;20032;-72
2023/01/11 05:04:31;;;;;;;12.57;5.85;;;;;;;10.63;100.00;100574.38;5075308;28;20806;-72
2023/01/11 05:06:57;;;;;;;11.93;5.45;;;;;;;10.67;100.00;100577.69;5056988;28;20528;-72
2023/01/11 05:09:22;;;;;;;12.70;5.07;;;;;;;10.66;100.00;100581.34;5054720;28;20145;-72
2023/01/11 05:11:47;;;;;;;14.73;5.63;;;;;;;10.68;100.00;100582.06;5074090;28;20052;-72
2023/01/11 05:14:16;;;;;;;12.85;5.55;;;;;;;10.75;100.00;100586.06;5074467;28;20040;-72
2023/01/11 05:16:42;;;;;;;12.13;5.82;;;;;;;10.78;100.00;100581.34;5074685;28;20039;-72
2023/01/11 05:19:10;;;;;;;11.57;6.05;;;;;;;10.77;100.00;100587.63;5076468;28;20044;-72
2023/01/11 05:21:38;;;;;;;11.70;5.90;;;;;;;10.79;100.00;100590.19;5056248;28;20080;-72
2023/01/11 05:24:06;;;;;;;10.38;5.95;;;;;;;10.86;100.00;100595.00;5073249;28;20174;-72
2023/01/11 05:26:35;;;;;;;13.57;5.47;;;;;;;10.85;100.00;100593.31;5073926;28;20036;-72
2023/01/11 05:29:04;;;;;;;7.22;4.13;;;;;;;10.90;100.00;100593.00;5072956;28;20146;-72
2023/01/11 05:31:30;;;;;;;8.18;4.60;;;;;;;10.90;100.00;100601.00;5075617;28;20076;-72
2023/01/11 05:33:57;;;;;;;5.80;2.95;;;;;;;10.93;100.00;100598.09;5058573;28;20039;-72
2023/01/11 05:36:24;;;;;;;3.75;2.58;;;;;;;10.95;100.00;100601.53;5075145;28;20036;-72
2023/01/11 05:38:51;;;;;;;5.30;2.80;;;;;;;10.95;100.00;100600.69;5074771;28;20036;-72
2023/01/11 05:41:19;;;;;;;3.30;2.20;;;;;;;10.99;100.00;100602.16;5056080;28;20581;-73
2023/01/11 05:46:32;;;;;;;2.88;1.90;;;;;;;11.02;100.00;100605.47;5067840;28;20032;-72
2023/01/11 05:48:58;;;;;;;2.97;2.28;;;;;;;11.01;100.00;100602.94;5077789;28;20603;-72
2023/01/11 05:51:24;;;;;;;5.03;3.20;;;;;;;10.99;100.00;100599.50;5057661;28;20127;-73
2023/01/11 05:53:50;;;;;;;6.18;3.20;;;;;;;11.03;100.00;100593.00;5072453;28;20060;-72
2023/01/11 05:56:18;;;;;;;6.40;3.22;;;;;;;10.97;100.00;100596.94;5075473;28;20794;-72
2023/01/11 05:58:46;;;;;;;6.47;3.70;;;;;;;11.04;100.00;100595.53;5060435;28;20040;-72
2023/01/11 06:01:12;;;;;;;9.05;4.22;;;;;;;11.02;100.00;100599.28;5058906;28;20047;-73
2023/01/11 06:03:37;;;;;;;15.68;4.47;;;;;;;11.01;100.00;100601.09;5076674;28;20036;-73
2023/01/11 06:06:03;;;;;;;12.40;5.18;;;;;;;11.05;100.00;100599.94;5079832;28;20044;-72
2023/01/11 06:08:28;;;;;;;15.52;5.40;;;;;;;11.09;100.00;100589.88;5061804;28;20040;-72
2023/01/11 06:10:55;;;;;;;11.50;6.05;;;;;;;11.07;100.00;100598.00;5076518;28;20039;-72
2023/01/11 06:13:25;;;;;;;21.63;8.48;;;;;;;11.15;100.00;100600.16;5080768;28;20048;-72
2023/01/11 06:15:52;;;;;;;17.40;6.90;;;;;;;11.05;100.00;100605.28;5078426;28;20124;-72
2023/01/11 06:18:17;;;;;;;18.13;6.70;;;;;;;11.03;100.00;100606.34;5057840;28;20063;-72
2023/01/11 06:20:43;;;;;;;18.15;6.75;;;;;;;10.98;100.00;100609.31;5079039;28;20066;-72
2023/01/11 06:23:08;;;;;;;17.25;7.40;;;;;;;11.00;100.00;100603.88;5051278;28;20040;-72
2023/01/11 06:25:36;;;;;;;20.95;6.43;;;;;;;11.00;100.00;100603.88;5077292;28;20118;-72
2023/01/11 06:28:03;;;;;;;20.77;8.55;;;;;;;10.99;100.00;100602.16;5075269;28;20044;-72
2023/01/11 06:30:28;;;;;;;15.68;7.53;;;;;;;11.01;100.00;100605.59;5073222;28;20032;-72
2023/01/11 06:32:54;;;;;;;19.40;6.65;;;;;;;10.92;100.00;100600.88;5074808;28;20443;-72
2023/01/11 06:35:20;;;;;;;24.40;7.70;;;;;;;10.93;100.00;100613.25;5075885;28;20036;-72
2023/01/11 06:37:46;;;;;;;20.17;8.65;;;;;;;10.86;100.00;100610.16;5072979;28;20087;-72
2023/01/11 06:40:12;;;;;;;25.35;5.70;;;;;;;10.80;100.00;100621.25;5073065;28;20671;-72
2023/01/11 06:42:37;;;;;;;16.67;4.90;;;;;;;10.80;100.00;100627.44;5076166;28;20877;-71
2023/01/11 06:45:04;;;;;;;23.23;4.68;;;;;;;10.77;100.00;100616.97;5066611;28;20594;-71
2023/01/11 06:47:29;;;;;;;14.70;5.25;;;;;;;10.71;100.00;100622.72;5074528;28;20572;-71
2023/01/11 06:49:55;;;;;;;15.95;3.85;;;;;;;10.58;100.00;100630.69;5076349;28;20089;-71
2023/01/11 06:52:20;;;;;;;18.08;4.03;;;;;;;10.61;100.00;100624.31;5051445;28;20043;-72
2023/01/11 06:54:45;;;;;;;24.13;4.88;;;;;;;10.62;100.00;100628.69;5053337;28;20135;-72
2023/01/11 06:57:11;;;;;;;19.65;3.83;;;;;;;10.68;100.00;100632.75;5057430;28;20051;-71
2023/01/11 06:59:38;;;;;;;17.48;3.78;;;;;;;10.55;100.00;100635.38;5073570;28;20036;-72
2023/01/11 07:02:04;;;;;;;25.13;4.22;;;;;;;10.60;100.00;100647.44;5073630;28;20046;-72
2023/01/11 07:04:30;;;;;;;19.05;5.03;;;;;;;10.51;100.00;100644.53;5076934;28;20046;-72
2023/01/11 07:06:56;;;;;;;22.85;4.78;;;;;;;10.54;100.00;100644.31;5061701;28;20032;-71
2023/01/11 07:09:22;;;;;;;25.55;4.38;;;;;;;10.57;100.00;100650.31;5074806;28;20036;-71
2023/01/11 07:11:47;;;;;;;22.92;5.50;;;;;;;10.55;100.00;100662.91;5078732;28;20122;-72
2023/01/11 07:14:18;;;;;;;14.15;3.70;;;;;;;10.39;100.00;100675.50;5061648;28;20067;-72
2023/01/11 07:16:44;;;;;;;43.15;5.38;;;;;;;10.49;100.00;100676.66;5057287;28;20685;-72
2023/01/11 07:19:10;;;;;;;18.00;4.18;;;;;;;10.43;100.00;100673.50;5079716;28;20039;-72
2023/01/11 07:21:35;;;;;;;28.65;4.53;;;;;;;10.46;100.00;100658.16;5057040;28;20035;-72
2023/01/11 07:24:01;;;;;;;31.10;4.53;;;;;;;10.47;100.00;100659.88;5063188;28;20550;-70
2023/01/11 07:26:27;;;;;;;24.55;5.05;;;;;;;10.43;100.00;100685.03;5060529;28;20839;-75
2023/01/11 07:28:52;;;;;;;23.55;4.95;;;;;;;10.38;100.00;100700.47;5043036;28;20082;-71
2023/01/11 07:31:18;;;;;;;23.20;4.72;;;;;;;10.40;100.00;100705.72;5078300;28;20083;-71
2023/01/11 07:33:43;;;;;;;23.95;3.90;;;;;;;10.37;100.00;100696.94;5056646;28;20040;-71
2023/01/11 07:36:09;;;;;;;18.30;3.58;;;;;;;10.44;100.00;100686.75;5075191;28;20028;-70
2023/01/11 07:38:34;;;;;;;26.50;4.43;;;;;;;10.35;100.00;100690.88;5075012;28;20565;-71
2023/01/11 07:40:59;;;;;;;23.13;4.60;;;;;;;10.36;100.00;100700.56;5056493;28;20043;-73
2023/01/11 07:43:25;;;;;;;26.98;4.40;;;;;;;10.29;100.00;100707.25;5059581;28;20661;-71
2023/01/11 07:45:51;;;;;;;28.40;6.25;;;;;;;10.22;100.00;100716.56;5079001;28;20035;-71
2023/01/11 07:48:25;;;;;;;20.50;4.10;;;;;;;10.32;100.00;100722.19;5073496;28;20036;-71
2023/01/11 07:50:52;;;;;;;27.95;5.50;;;;;;;10.19;100.00;100723.88;5053674;28;20040;-72
2023/01/11 07:53:17;;;;;;;22.17;4.22;;;;;;;10.21;100.00;100730.84;5051385;28;20044;-71
2023/01/11 07:55:43;;;;;;;27.70;5.05;;;;;;;10.21;100.00;100728.16;5059607;28;20067;-73
2023/01/11 07:58:11;;;;;;;19.65;3.70;;;;;;;10.17;100.00;100736.44;5076560;28;20025;-71
2023/01/11 08:00:39;;;;;;;17.20;3.70;;;;;;;10.16;100.00;100735.59;5056513;28;20081;-70
2023/01/11 08:03:04;;;;;;;22.65;4.22;;;;;;;10.15;100.00;100743.69;5045334;28;20113;-71
2023/01/11 08:05:30;;;;;;;21.05;3.47;;;;;;;10.16;100.00;100751.59;5072555;28;20044;-71
2023/01/11 08:07:55;;;;;;;18.38;3.13;;;;;;;10.11;100.00;100751.03;5077360;28;20040;-71
2023/01/11 08:10:21;;;;;;;27.23;4.90;;;;;;;10.07;100.00;100747.69;5075420;28;20041;-71
2023/01/11 08:15:33;;;;;;;21.60;4.38;;;;;;;10.05;100.00;100752.25;5076064;28;20117;-71
2023/01/11 08:18:01;;;;;;;19.58;4.15;;;;;;;10.02;100.00;100759.59;5056720;28;20777;-71
2023/01/11 08:20:27;;;;;;;21.77;3.95;;;;;;;9.94;100.00;100768.06;5076807;28;20042;-71
2023/01/11 08:22:53;;;;;;;15.90;3.20;;;;;;;10.02;100.00;100773.75;5075521;28;20050;-71
2023/01/11 08:25:18;;;;;;;18.75;3.55;;;;;;;10.06;100.00;100779.75;5072811;28;20063;-71
2023/01/11 08:27:44;;;;;;;26.95;3.30;;;;;;;9.98;100.00;100787.34;5060926;28;20123;-72
2023/01/11 08:30:10;;;;;;;31.60;3.13;;;;;;;9.98;100.00;100796.19;5051809;28;20039;-73
2023/01/11 08:32:36;;;;;;;30.10;4.45;;;;;;;9.96;100.00;100799.94;5058655;28;20040;-72
2023/01/11 08:35:01;;;;;;;16.58;3.00;;;;;;;9.99;100.00;100803.28;5075655;28;20028;-71
2023/01/11 08:37:27;;;;;;;26.77;3.65;;;;;;;9.98;100.00;100814.84;5051200;28;20036;-72
2023/01/11 08:39:54;;;;;;;19.40;4.05;;;;;;;10.01;100.00;100813.81;5071338;28;20036;-71
2023/01/11 08:42:20;;;;;;;17.08;3.35;;;;;;;9.98;100.00;100822.00;5059337;28;20050;-72
2023/01/11 08:44:45;;;;;;;20.65;3.75;;;;;;;9.94;100.00;100817.78;5075998;28;20047;-71
2023/01/11 08:47:11;;;;;;;19.63;4.20;;;;;;;9.97;100.00;100826.47;5073629;28;20048;-71
2023/01/11 08:49:36;;;;;;;15.55;3.55;;;;;;;10.04;100.00;100838.47;5060273;28;20044;-71
2023/01/11 08:52:02;;;;;;;29.52;3.22;;;;;;;9.95;100.00;100833.72;5078242;28;20093;-71
2023/01/11 08:54:27;;;;;;;32.70;5.40;;;;;;;10.04;100.00;100838.47;5074515;28;20040;-71
2023/01/11 08:56:54;;;;;;;19.95;3.90;;;;;;;10.04;100.00;100841.13;5059097;28;20044;-71
2023/01/11 08:59:20;;;;;;;25.88;3.22;;;;;;;9.95;100.00;100843.50;5078866;28;20032;-71
2023/01/11 09:01:46;;;;;;;29.80;5.25;;;;;;;9.90;100.00;100851.78;5060592;28;20047;-71
2023/01/11 09:04:12;;;;;;;19.13;3.47;;;;;;;10.00;100.00;100844.94;5077020;28;20040;-71
2023/01/11 09:06:37;;;;;;;20.73;3.38;;;;;;;9.99;100.00;100853.00;5077061;28;20481;-72
2023/01/11 09:09:03;;;;;;;19.77;3.42;;;;;;;9.92;100.00;100855.19;5078111;28;20031;-71
2023/01/11 09:14:13;;;;;;;20.58;3.63;;;;;;;10.00;100.00;100860.06;5074702;28;20044;-71
2023/01/11 09:16:38;;;;;;;22.35;4.10;;;;;;;10.04;100.00;100857.13;5038812;28;20941;-71
2023/01/11 09:19:04;;;;;;;22.40;3.72;;;;;;;10.04;100.00;100865.13;5048414;28;20136;-71
2023/01/11 09:21:30;;;;;;;22.92;3.60;;;;;;;9.98;100.00;100865.47;5042890;28;20044;-73
2023/01/11 09:23:55;;;;;;;21.85;3.72;;;;;;;9.99;100.00;100867.19;5074817;28;20028;-71
2023/01/11 09:26:21;;;;;;;23.67;4.35;;;;;;;10.04;100.00;100870.44;5077953;28;20105;-71
2023/01/11 09:28:47;;;;;;;24.75;3.50;;;;;;;10.01;100.00;100872.44;5079866;28;20452;-73
2023/01/11 09:31:12;;;;;;;25.95;4.20;;;;;;;10.08;100.00;100873.75;5078922;28;20064;-71
2023/01/11 09:33:38;;;;;;;24.55;4.07;;;;;;;10.01;100.00;100881.28;5068218;28;20035;-72
2023/01/11 09:36:04;;;;;;;18.67;3.22;;;;;;;10.02;100.00;100888.31;5077210;28;20565;-71
2023/01/11 09:38:32;;;;;;;16.75;4.68;;;;;;;9.92;100.00;100889.81;5078037;28;20681;-72
2023/01/11 09:41:37;;;;;;;32.85;5.82;;;;;;;9.93;100.00;100896.00;5046410;28;20050;-71
2023/01/11 09:44:14;;;;;;;16.65;3.70;;;;;;;9.89;100.00;100886.47;5054284;28;20044;-71
2023/01/11 09:46:47;;;;;;;23.45;3.50;;;;;;;9.75;100.00;100892.63;5075939;28;20094;-71
2023/01/11 09:49:19;;;;;;;27.90;3.67;;;;;;;9.81;100.00;100897.59;5070927;28;20142;-71
2023/01/11 09:51:46;;;;;;;29.17;4.45;;;;;;;9.80;100.00;100891.41;5055652;28;20032;-71
2023/01/11 09:54:23;;;;;;;26.23;4.15;;;;;;;9.76;100.00;100907.66;5081624;28;20047;-71
2023/01/11 09:57:25;;;;;;;34.55;7.03;;;;;;;9.64;100.00;100903.94;5058773;28;20108;-72
2023/01/11 10:00:16;;;;;;;13.80;4.10;;;;;;;9.54;100.00;100908.94;5062864;28;20145;-71
2023/01/11 10:03:13;;;;;;;34.42;4.55;;;;;;;9.50;100.00;100902.06;5060452;28;20028;-71
2023/01/11 10:06:11;;;;;;;22.83;4.10;;;;;;;9.45;100.00;100901.47;5078750;28;20127;-70
2023/01/11 10:09:04;;;;;;;25.58;4.22;;;;;;;9.48;100.00;100905.75;5079020;28;20485;-71
2023/01/11 10:11:36;;;;;;;29.33;4.82;;;;;;;9.34;100.00;100917.19;5081899;28;20078;-71
2023/01/11 10:14:34;;;;;;;35.33;6.37;;;;;;;9.31;100.00;100920.88;5077354;28;20028;-71
2023/01/11 10:17:16;;;;;;;33.72;3.97;;;;;;;9.47;100.00;100912.88;5067953;28;20042;-73
2023/01/11 10:19:46;;;;;;;34.37;6.10;;;;;;;9.43;100.00;100926.44;5077302;28;20042;-71
2023/01/11 10:22:22;;;;;;;21.15;4.53;;;;;;;9.34;100.00;100920.72;5058938;28;20079;-71
2023/01/11 10:24:51;;;;;;;18.98;3.70;;;;;;;9.31;100.00;100917.38;5079422;28;20036;-71
2023/01/11 10:27:45;;;;;;;30.45;4.47;;;;;;;9.36;100.00;100920.63;5061764;28;20050;-71
2023/01/11 10:41:53;;;;;;;22.67;3.97;;;;;;;9.60;100.00;100905.03;5079317;28;20043;-71
2023/01/11 10:44:30;;;;;;;25.00;3.50;;;;;;;9.58;100.00;100907.78;5081164;28;20395;-72
2023/01/11 10:46:58;;;;;;;19.42;5.18;;;;;;;9.58;100.00;100909.59;5058133;28;20207;-72
2023/01/11 10:49:24;;;;;;;17.48;3.55;;;;;;;9.55;100.00;100915.97;5078634;28;20158;-71
2023/01/11 10:51:54;;;;;;;31.35;5.45;;;;;;;9.63;100.00;100911.97;5080974;28;20040;-71
2023/01/11 10:54:25;;;;;;;29.25;3.95;;;;;;;9.61;100.00;100922.72;5076122;28;20036;-72
2023/01/11 10:57:12;;;;;;;38.28;6.55;;;;;;;9.64;100.00;100919.00;5057654;28;20121;-71
2023/01/11 11:00:17;;;;;;;14.60;3.13;;;;;;;9.95;100.00;100907.44;5074955;28;20032;-71
2023/01/11 11:03:13;;;;;;;17.17;3.10;;;;;;;10.11;100.00;100919.72;5073747;28;20048;-72
2023/01/11 11:06:19;;;;;;;16.38;3.15;;;;;;;10.09;100.00;100912.78;5067841;28;20035;-71
2023/01/11 11:09:21;;;;;;;26.73;4.20;;;;;;;10.20;100.00;100917.47;5079874;28;20090;-71
2023/01/11 11:11:57;;;;;;;36.08;3.95;;;;;;;10.19;100.00;100915.72;5058682;28;20155;-71
2023/01/11 11:14:59;;;;;;;21.17;4.13;;;;;;;10.26;100.00;100910.00;5079666;28;20064;-71
2023/01/11 11:17:29;;;;;;;20.80;4.37;;;;;;;10.57;100.00;100918.75;5058567;28;20709;-70
2023/01/11 11:19:56;;;;;;;22.55;3.85;;;;;;;10.59;100.00;100916.84;5078040;28;20036;-71
2023/01/11 11:22:22;;;;;;;21.88;4.15;;;;;;;10.60;100.00;100913.25;5079580;28;20048;-70
2023/01/11 11:25:30;;;;;;;22.10;3.83;;;;;;;10.77;100.00;100918.38;5077358;28;20028;-70
2023/01/11 11:28:23;;;;;;;32.35;5.60;;;;;;;10.85;100.00;100918.75;5010389;28;20156;-71
2023/01/11 11:30:52;;;;;;;19.83;3.45;;;;;;;10.82;100.00;100926.09;5075420;28;20051;-70
2023/01/11 11:33:29;;;;;;;23.95;3.72;;;;;;;10.79;100.00;100926.25;5078089;28;20371;-70
2023/01/11 11:36:03;;;;;;;24.90;3.40;;;;;;;10.49;100.00;100921.03;5046463;28;20588;-72
2023/01/11 11:38:34;;;;;;;18.60;3.95;;;;;;;10.68;100.00;100926.09;5058857;28;20039;-70
2023/01/11 11:41:07;;;;;;;15.82;3.25;;;;;;;10.78;100.00;100920.06;5073292;28;20071;-71
2023/01/11 11:43:34;;;;;;;29.45;5.47;;;;;;;10.51;100.00;100930.66;5075847;28;20129;-71
2023/01/11 11:46:24;;;;;;;23.02;3.50;;;;;;;10.61;100.00;100926.47;5073120;28;20592;-72
2023/01/11 11:49:10;;;;;;;24.67;2.90;;;;;;;10.67;100.00;100925.22;5060472;28;20793;-71
2023/01/11 11:51:36;;;;;;;15.82;3.30;;;;;;;10.76;100.00;100924.66;5058536;28;20052;-71
2023/01/11 11:54:01;;;;;;;20.58;3.88;;;;;;;10.73;100.00;100927.50;5054887;28;20044;-71
2023/01/11 11:56:28;;;;;;;27.85;3.95;;;;;;;10.54;100.00;100927.81;5074399;28;20036;-71
2023/01/11 11:58:55;;;;;;;16.63;3.80;;;;;;;10.75;100.00;100933.63;5050709;28;20040;-71
2023/01/11 12:01:29;;;;;;;27.63;3.60;;;;;;;10.71;100.00;100929.44;5079257;28;20052;-71
2023/01/11 12:04:00;;;;;;;22.02;3.15;;;;;;;10.68;100.00;100936.75;5073145;28;20070;-72